sensor_id;sensor_type;location;lat;lon;timestamp;P1;durP1;ratioP1;P2;durP2;ratioP2
18732;SDS011;9495;51.210;2.934;2023-09-07T00:00:38;60.75;;;52.65;;
18732;SDS011;9495;51.210;2.934;2023-09-07T00:03:07;61.33;;;52.28;;
18732;SDS011;9495;51.210;2.934;2023-09-07T00:05:36;58.72;;;52.42;;
18732;SDS011;9495;51.210;2.934;2023-09-07T00:08:04;60.33;;;53.78;;
18732;SDS011;9495;51.210;2.934;2023-09-07T00:10:33;67.07;;;56.05;;
18732;SDS011;9495;51.210;2.934;2023-09-07T00:13:02;66.18;;;53.90;;
18732;SDS011;9495;51.210;2.934;2023-09-07T00:15:36;66.70;;;53.97;;
18732;SDS011;9495;51.210;2.934;2023-09-07T00:18:06;61.55;;;54.17;;
18732;SDS011;9495;51.210;2.934;2023-09-07T00:20:34;63.50;;;52.47;;
18732;SDS011;9495;51.210;2.934;2023-09-07T00:23:03;59.40;;;51.72;;
18732;SDS011;9495;51.210;2.934;2023-09-07T00:25:31;57.80;;;51.50;;
18732;SDS011;9495;51.210;2.934;2023-09-07T00:28:00;58.03;;;50.97;;
18732;SDS011;9495;51.210;2.934;2023-09-07T00:30:31;57.72;;;51.40;;
18732;SDS011;9495;51.210;2.934;2023-09-07T00:33:00;57.05;;;50.72;;
18732;SDS011;9495;51.210;2.934;2023-09-07T00:35:29;59.55;;;51.30;;
18732;SDS011;9495;51.210;2.934;2023-09-07T00:37:58;56.75;;;50.45;;
18732;SDS011;9495;51.210;2.934;2023-09-07T00:40:26;57.83;;;51.60;;
18732;SDS011;9495;51.210;2.934;2023-09-07T00:42:55;66.38;;;51.05;;
18732;SDS011;9495;51.210;2.934;2023-09-07T00:45:24;56.50;;;50.35;;
18732;SDS011;9495;51.210;2.934;2023-09-07T00:47:52;58.42;;;49.75;;
18732;SDS011;9495;51.210;2.934;2023-09-07T00:50:22;55.92;;;49.22;;
18732;SDS011;9495;51.210;2.934;2023-09-07T00:52:51;57.95;;;51.55;;
18732;SDS011;9495;51.210;2.934;2023-09-07T00:55:19;61.03;;;51.65;;
18732;SDS011;9495;51.210;2.934;2023-09-07T00:57:49;55.75;;;48.65;;
18732;SDS011;9495;51.210;2.934;2023-09-07T01:00:17;54.83;;;48.92;;
18732;SDS011;9495;51.210;2.934;2023-09-07T01:02:46;56.38;;;49.97;;
18732;SDS011;9495;51.210;2.934;2023-09-07T01:05:14;58.88;;;51.78;;
18732;SDS011;9495;51.210;2.934;2023-09-07T01:07:45;59.00;;;52.55;;
18732;SDS011;9495;51.210;2.934;2023-09-07T01:10:18;60.40;;;51.90;;
18732;SDS011;9495;51.210;2.934;2023-09-07T01:12:48;61.08;;;52.97;;
18732;SDS011;9495;51.210;2.934;2023-09-07T01:15:16;58.80;;;52.33;;
18732;SDS011;9495;51.210;2.934;2023-09-07T01:17:45;63.30;;;54.40;;
18732;SDS011;9495;51.210;2.934;2023-09-07T01:20:14;60.00;;;53.33;;
18732;SDS011;9495;51.210;2.934;2023-09-07T01:22:46;62.92;;;53.95;;
18732;SDS011;9495;51.210;2.934;2023-09-07T01:25:15;61.88;;;52.55;;
18732;SDS011;9495;51.210;2.934;2023-09-07T01:27:44;65.45;;;54.30;;
18732;SDS011;9495;51.210;2.934;2023-09-07T01:30:13;61.78;;;53.90;;
18732;SDS011;9495;51.210;2.934;2023-09-07T01:32:42;64.15;;;54.70;;
18732;SDS011;9495;51.210;2.934;2023-09-07T01:35:10;61.53;;;54.85;;
18732;SDS011;9495;51.210;2.934;2023-09-07T01:37:41;65.78;;;56.83;;
18732;SDS011;9495;51.210;2.934;2023-09-07T01:40:11;63.22;;;55.28;;
18732;SDS011;9495;51.210;2.934;2023-09-07T01:42:39;68.57;;;55.42;;
18732;SDS011;9495;51.210;2.934;2023-09-07T01:45:08;62.95;;;54.67;;
18732;SDS011;9495;51.210;2.934;2023-09-07T01:47:37;64.55;;;55.20;;
18732;SDS011;9495;51.210;2.934;2023-09-07T01:50:06;61.90;;;55.15;;
18732;SDS011;9495;51.210;2.934;2023-09-07T01:52:34;67.88;;;55.55;;
18732;SDS011;9495;51.210;2.934;2023-09-07T01:55:03;68.47;;;54.63;;
18732;SDS011;9495;51.210;2.934;2023-09-07T01:57:33;60.88;;;53.58;;
18732;SDS011;9495;51.210;2.934;2023-09-07T02:00:02;68.82;;;54.80;;
18732;SDS011;9495;51.210;2.934;2023-09-07T02:02:32;63.10;;;54.88;;
18732;SDS011;9495;51.210;2.934;2023-09-07T02:05:00;64.57;;;54.50;;
18732;SDS011;9495;51.210;2.934;2023-09-07T02:07:29;67.10;;;54.90;;
18732;SDS011;9495;51.210;2.934;2023-09-07T02:09:58;68.97;;;54.20;;
18732;SDS011;9495;51.210;2.934;2023-09-07T02:12:26;62.65;;;53.88;;
18732;SDS011;9495;51.210;2.934;2023-09-07T02:14:56;64.88;;;53.55;;
18732;SDS011;9495;51.210;2.934;2023-09-07T02:17:25;64.80;;;54.33;;
18732;SDS011;9495;51.210;2.934;2023-09-07T02:19:54;65.97;;;53.42;;
18732;SDS011;9495;51.210;2.934;2023-09-07T02:22:22;60.78;;;54.15;;
18732;SDS011;9495;51.210;2.934;2023-09-07T02:24:51;62.95;;;55.67;;
18732;SDS011;9495;51.210;2.934;2023-09-07T02:27:19;64.78;;;55.15;;
18732;SDS011;9495;51.210;2.934;2023-09-07T02:29:48;71.30;;;55.97;;
18732;SDS011;9495;51.210;2.934;2023-09-07T02:32:18;68.13;;;55.10;;
18732;SDS011;9495;51.210;2.934;2023-09-07T02:34:46;62.60;;;53.70;;
18732;SDS011;9495;51.210;2.934;2023-09-07T02:37:15;59.72;;;51.83;;
18732;SDS011;9495;51.210;2.934;2023-09-07T02:39:43;67.90;;;52.63;;
18732;SDS011;9495;51.210;2.934;2023-09-07T02:42:12;65.28;;;53.22;;
18732;SDS011;9495;51.210;2.934;2023-09-07T02:44:40;69.25;;;54.30;;
18732;SDS011;9495;51.210;2.934;2023-09-07T02:47:09;67.80;;;55.25;;
18732;SDS011;9495;51.210;2.934;2023-09-07T02:49:39;71.53;;;59.33;;
18732;SDS011;9495;51.210;2.934;2023-09-07T02:52:08;70.80;;;57.65;;
18732;SDS011;9495;51.210;2.934;2023-09-07T02:54:37;69.95;;;57.40;;
18732;SDS011;9495;51.210;2.934;2023-09-07T02:57:05;75.30;;;59.08;;
18732;SDS011;9495;51.210;2.934;2023-09-07T02:59:34;70.93;;;57.47;;
18732;SDS011;9495;51.210;2.934;2023-09-07T03:02:02;75.70;;;56.85;;
18732;SDS011;9495;51.210;2.934;2023-09-07T03:04:31;68.43;;;56.97;;
18732;SDS011;9495;51.210;2.934;2023-09-07T03:07:01;70.22;;;56.53;;
18732;SDS011;9495;51.210;2.934;2023-09-07T03:09:30;70.55;;;55.60;;
18732;SDS011;9495;51.210;2.934;2023-09-07T03:11:58;72.57;;;55.75;;
18732;SDS011;9495;51.210;2.934;2023-09-07T03:14:27;71.50;;;56.22;;
18732;SDS011;9495;51.210;2.934;2023-09-07T03:16:55;73.22;;;56.08;;
18732;SDS011;9495;51.210;2.934;2023-09-07T03:19:24;70.95;;;55.50;;
18732;SDS011;9495;51.210;2.934;2023-09-07T03:21:53;69.10;;;53.63;;
18732;SDS011;9495;51.210;2.934;2023-09-07T03:24:23;66.68;;;53.38;;
18732;SDS011;9495;51.210;2.934;2023-09-07T03:26:53;68.05;;;56.03;;
18732;SDS011;9495;51.210;2.934;2023-09-07T03:29:22;69.32;;;57.33;;
18732;SDS011;9495;51.210;2.934;2023-09-07T03:31:50;69.18;;;56.03;;
18732;SDS011;9495;51.210;2.934;2023-09-07T03:34:19;71.05;;;58.03;;
18732;SDS011;9495;51.210;2.934;2023-09-07T03:36:47;70.60;;;55.33;;
18732;SDS011;9495;51.210;2.934;2023-09-07T03:39:16;74.55;;;53.85;;
18732;SDS011;9495;51.210;2.934;2023-09-07T03:41:46;67.18;;;52.65;;
18732;SDS011;9495;51.210;2.934;2023-09-07T03:44:15;66.20;;;54.92;;
18732;SDS011;9495;51.210;2.934;2023-09-07T03:46:43;68.13;;;50.05;;
18732;SDS011;9495;51.210;2.934;2023-09-07T03:49:13;61.17;;;50.25;;
18732;SDS011;9495;51.210;2.934;2023-09-07T03:51:41;63.05;;;48.65;;
18732;SDS011;9495;51.210;2.934;2023-09-07T03:54:10;56.00;;;47.30;;
18732;SDS011;9495;51.210;2.934;2023-09-07T03:56:38;53.47;;;45.15;;
18732;SDS011;9495;51.210;2.934;2023-09-07T03:59:08;62.05;;;45.90;;
18732;SDS011;9495;51.210;2.934;2023-09-07T04:01:37;58.15;;;44.70;;
18732;SDS011;9495;51.210;2.934;2023-09-07T04:04:06;52.40;;;43.78;;
18732;SDS011;9495;51.210;2.934;2023-09-07T04:06:34;55.53;;;43.10;;
18732;SDS011;9495;51.210;2.934;2023-09-07T04:09:03;52.45;;;41.97;;
18732;SDS011;9495;51.210;2.934;2023-09-07T04:11:32;54.90;;;44.60;;
18732;SDS011;9495;51.210;2.934;2023-09-07T04:14:01;50.38;;;41.38;;
18732;SDS011;9495;51.210;2.934;2023-09-07T04:16:31;54.20;;;43.55;;
18732;SDS011;9495;51.210;2.934;2023-09-07T04:18:59;50.28;;;42.85;;
18732;SDS011;9495;51.210;2.934;2023-09-07T04:21:28;52.45;;;42.60;;
18732;SDS011;9495;51.210;2.934;2023-09-07T04:23:56;50.08;;;42.60;;
18732;SDS011;9495;51.210;2.934;2023-09-07T04:26:25;53.70;;;44.08;;
18732;SDS011;9495;51.210;2.934;2023-09-07T04:28:54;51.80;;;43.05;;
18732;SDS011;9495;51.210;2.934;2023-09-07T04:31:22;55.13;;;43.55;;
18732;SDS011;9495;51.210;2.934;2023-09-07T04:33:55;56.35;;;45.47;;
18732;SDS011;9495;51.210;2.934;2023-09-07T04:36:23;61.40;;;46.28;;
18732;SDS011;9495;51.210;2.934;2023-09-07T04:38:52;59.17;;;46.92;;
18732;SDS011;9495;51.210;2.934;2023-09-07T04:41:20;55.28;;;46.05;;
18732;SDS011;9495;51.210;2.934;2023-09-07T04:43:49;59.97;;;46.90;;
18732;SDS011;9495;51.210;2.934;2023-09-07T04:46:20;57.38;;;45.63;;
18732;SDS011;9495;51.210;2.934;2023-09-07T04:48:49;61.17;;;45.95;;
18732;SDS011;9495;51.210;2.934;2023-09-07T04:51:19;60.70;;;47.33;;
18732;SDS011;9495;51.210;2.934;2023-09-07T04:53:48;57.13;;;44.17;;
18732;SDS011;9495;51.210;2.934;2023-09-07T04:56:20;57.78;;;46.17;;
18732;SDS011;9495;51.210;2.934;2023-09-07T04:58:49;51.50;;;44.28;;
18732;SDS011;9495;51.210;2.934;2023-09-07T05:01:18;53.70;;;44.08;;
18732;SDS011;9495;51.210;2.934;2023-09-07T05:03:47;55.72;;;44.42;;
18732;SDS011;9495;51.210;2.934;2023-09-07T05:06:17;55.00;;;42.45;;
18732;SDS011;9495;51.210;2.934;2023-09-07T05:08:50;52.60;;;41.97;;
18732;SDS011;9495;51.210;2.934;2023-09-07T05:11:18;49.88;;;41.55;;
18732;SDS011;9495;51.210;2.934;2023-09-07T05:13:47;50.95;;;41.97;;
18732;SDS011;9495;51.210;2.934;2023-09-07T05:16:15;53.47;;;41.53;;
18732;SDS011;9495;51.210;2.934;2023-09-07T05:18:43;47.33;;;40.28;;
18732;SDS011;9495;51.210;2.934;2023-09-07T05:21:12;48.10;;;40.80;;
18732;SDS011;9495;51.210;2.934;2023-09-07T05:23:43;45.97;;;39.65;;
18732;SDS011;9495;51.210;2.934;2023-09-07T05:26:11;50.72;;;39.90;;
18732;SDS011;9495;51.210;2.934;2023-09-07T05:28:40;49.60;;;38.88;;
18732;SDS011;9495;51.210;2.934;2023-09-07T05:31:08;52.08;;;39.20;;
18732;SDS011;9495;51.210;2.934;2023-09-07T05:33:37;47.25;;;38.45;;
18732;SDS011;9495;51.210;2.934;2023-09-07T05:36:06;48.17;;;37.58;;
18732;SDS011;9495;51.210;2.934;2023-09-07T05:38:35;46.33;;;37.83;;
18732;SDS011;9495;51.210;2.934;2023-09-07T05:41:05;48.72;;;38.13;;
18732;SDS011;9495;51.210;2.934;2023-09-07T05:43:34;47.47;;;37.55;;
18732;SDS011;9495;51.210;2.934;2023-09-07T05:46:03;50.47;;;36.60;;
18732;SDS011;9495;51.210;2.934;2023-09-07T05:48:32;47.33;;;35.65;;
18732;SDS011;9495;51.210;2.934;2023-09-07T05:51:00;45.95;;;36.08;;
18732;SDS011;9495;51.210;2.934;2023-09-07T05:53:30;44.65;;;34.60;;
18732;SDS011;9495;51.210;2.934;2023-09-07T05:55:58;50.10;;;35.80;;
18732;SDS011;9495;51.210;2.934;2023-09-07T05:58:28;39.47;;;34.05;;
18732;SDS011;9495;51.210;2.934;2023-09-07T06:00:57;47.85;;;34.47;;
18732;SDS011;9495;51.210;2.934;2023-09-07T06:03:27;41.83;;;34.33;;
18732;SDS011;9495;51.210;2.934;2023-09-07T06:05:55;39.67;;;32.72;;
18732;SDS011;9495;51.210;2.934;2023-09-07T06:08:24;42.72;;;32.53;;
18732;SDS011;9495;51.210;2.934;2023-09-07T06:10:53;41.60;;;33.17;;
18732;SDS011;9495;51.210;2.934;2023-09-07T06:13:21;38.22;;;32.78;;
18732;SDS011;9495;51.210;2.934;2023-09-07T06:15:51;41.17;;;31.17;;
18732;SDS011;9495;51.210;2.934;2023-09-07T06:18:19;38.05;;;30.38;;
18732;SDS011;9495;51.210;2.934;2023-09-07T06:20:48;39.50;;;30.30;;
18732;SDS011;9495;51.210;2.934;2023-09-07T06:23:17;34.92;;;28.98;;
18732;SDS011;9495;51.210;2.934;2023-09-07T06:25:45;41.35;;;29.77;;
18732;SDS011;9495;51.210;2.934;2023-09-07T06:28:14;36.70;;;28.73;;
18732;SDS011;9495;51.210;2.934;2023-09-07T06:30:43;37.47;;;29.25;;
18732;SDS011;9495;51.210;2.934;2023-09-07T06:33:13;36.08;;;27.73;;
18732;SDS011;9495;51.210;2.934;2023-09-07T06:35:41;34.92;;;28.92;;
18732;SDS011;9495;51.210;2.934;2023-09-07T06:38:10;35.92;;;28.50;;
18732;SDS011;9495;51.210;2.934;2023-09-07T06:40:40;34.45;;;27.25;;
18732;SDS011;9495;51.210;2.934;2023-09-07T06:43:15;34.85;;;27.85;;
18732;SDS011;9495;51.210;2.934;2023-09-07T06:45:43;33.83;;;27.15;;
18732;SDS011;9495;51.210;2.934;2023-09-07T06:48:13;38.15;;;28.15;;
18732;SDS011;9495;51.210;2.934;2023-09-07T06:50:42;41.95;;;26.67;;
18732;SDS011;9495;51.210;2.934;2023-09-07T06:53:11;38.35;;;25.38;;
18732;SDS011;9495;51.210;2.934;2023-09-07T06:55:39;29.80;;;25.20;;
18732;SDS011;9495;51.210;2.934;2023-09-07T06:58:08;28.23;;;23.25;;
18732;SDS011;9495;51.210;2.934;2023-09-07T07:00:36;28.35;;;22.40;;
18732;SDS011;9495;51.210;2.934;2023-09-07T07:03:05;28.90;;;21.20;;
18732;SDS011;9495;51.210;2.934;2023-09-07T07:05:35;27.92;;;21.58;;
18732;SDS011;9495;51.210;2.934;2023-09-07T07:08:04;33.08;;;20.88;;
18732;SDS011;9495;51.210;2.934;2023-09-07T07:10:32;25.52;;;19.85;;
18732;SDS011;9495;51.210;2.934;2023-09-07T07:13:01;31.33;;;19.80;;
18732;SDS011;9495;51.210;2.934;2023-09-07T07:15:29;28.42;;;21.13;;
18732;SDS011;9495;51.210;2.934;2023-09-07T07:17:58;27.73;;;20.88;;
18732;SDS011;9495;51.210;2.934;2023-09-07T07:20:27;26.98;;;20.60;;
18732;SDS011;9495;51.210;2.934;2023-09-07T07:22:57;26.70;;;20.30;;
18732;SDS011;9495;51.210;2.934;2023-09-07T07:25:25;30.55;;;20.35;;
18732;SDS011;9495;51.210;2.934;2023-09-07T07:27:54;29.58;;;20.42;;
18732;SDS011;9495;51.210;2.934;2023-09-07T07:30:23;27.83;;;19.77;;
18732;SDS011;9495;51.210;2.934;2023-09-07T07:32:54;30.65;;;19.85;;
18732;SDS011;9495;51.210;2.934;2023-09-07T07:35:23;25.98;;;19.20;;
18732;SDS011;9495;51.210;2.934;2023-09-07T07:37:52;22.25;;;18.05;;
18732;SDS011;9495;51.210;2.934;2023-09-07T07:40:22;21.88;;;17.67;;
18732;SDS011;9495;51.210;2.934;2023-09-07T07:42:50;21.13;;;17.88;;
18732;SDS011;9495;51.210;2.934;2023-09-07T07:45:20;20.67;;;17.58;;
18732;SDS011;9495;51.210;2.934;2023-09-07T07:47:48;22.13;;;17.02;;
18732;SDS011;9495;51.210;2.934;2023-09-07T07:50:17;21.17;;;17.30;;
18732;SDS011;9495;51.210;2.934;2023-09-07T07:52:46;22.17;;;16.90;;
18732;SDS011;9495;51.210;2.934;2023-09-07T07:55:15;24.15;;;15.80;;
18732;SDS011;9495;51.210;2.934;2023-09-07T07:57:45;27.85;;;15.80;;
18732;SDS011;9495;51.210;2.934;2023-09-07T08:00:13;18.50;;;16.13;;
18732;SDS011;9495;51.210;2.934;2023-09-07T08:02:42;26.15;;;16.77;;
18732;SDS011;9495;51.210;2.934;2023-09-07T08:05:11;20.52;;;15.57;;
18732;SDS011;9495;51.210;2.934;2023-09-07T08:07:40;18.35;;;15.07;;
18732;SDS011;9495;51.210;2.934;2023-09-07T08:10:09;26.02;;;15.80;;
18732;SDS011;9495;51.210;2.934;2023-09-07T08:12:37;19.92;;;15.23;;
18732;SDS011;9495;51.210;2.934;2023-09-07T08:15:07;18.50;;;13.70;;
18732;SDS011;9495;51.210;2.934;2023-09-07T08:17:36;22.40;;;14.00;;
18732;SDS011;9495;51.210;2.934;2023-09-07T08:20:05;21.25;;;14.35;;
18732;SDS011;9495;51.210;2.934;2023-09-07T08:22:37;17.30;;;13.80;;
18732;SDS011;9495;51.210;2.934;2023-09-07T08:25:10;21.60;;;13.38;;
18732;SDS011;9495;51.210;2.934;2023-09-07T08:27:40;16.63;;;12.50;;
18732;SDS011;9495;51.210;2.934;2023-09-07T08:30:13;21.23;;;13.00;;
18732;SDS011;9495;51.210;2.934;2023-09-07T08:32:43;17.52;;;12.13;;
18732;SDS011;9495;51.210;2.934;2023-09-07T08:35:12;17.65;;;12.45;;
18732;SDS011;9495;51.210;2.934;2023-09-07T08:37:43;17.10;;;11.57;;
18732;SDS011;9495;51.210;2.934;2023-09-07T08:40:12;21.15;;;11.88;;
18732;SDS011;9495;51.210;2.934;2023-09-07T08:42:43;20.35;;;11.13;;
18732;SDS011;9495;51.210;2.934;2023-09-07T08:45:14;16.90;;;10.88;;
18732;SDS011;9495;51.210;2.934;2023-09-07T08:47:49;20.33;;;11.75;;
18732;SDS011;9495;51.210;2.934;2023-09-07T08:50:20;17.60;;;11.63;;
18732;SDS011;9495;51.210;2.934;2023-09-07T08:52:50;18.00;;;12.07;;
18732;SDS011;9495;51.210;2.934;2023-09-07T08:55:20;15.93;;;11.30;;
18732;SDS011;9495;51.210;2.934;2023-09-07T08:57:50;12.70;;;10.82;;
18732;SDS011;9495;51.210;2.934;2023-09-07T09:00:20;13.07;;;9.82;;
18732;SDS011;9495;51.210;2.934;2023-09-07T09:02:50;14.02;;;9.63;;
18732;SDS011;9495;51.210;2.934;2023-09-07T09:05:22;16.88;;;9.95;;
18732;SDS011;9495;51.210;2.934;2023-09-07T09:08:00;15.65;;;9.52;;
18732;SDS011;9495;51.210;2.934;2023-09-07T09:10:30;12.27;;;9.43;;
18732;SDS011;9495;51.210;2.934;2023-09-07T09:12:59;20.88;;;9.90;;
18732;SDS011;9495;51.210;2.934;2023-09-07T09:15:28;13.00;;;9.38;;
18732;SDS011;9495;51.210;2.934;2023-09-07T09:17:57;13.65;;;9.15;;
18732;SDS011;9495;51.210;2.934;2023-09-07T09:20:26;10.90;;;8.10;;
18732;SDS011;9495;51.210;2.934;2023-09-07T09:22:55;14.82;;;8.57;;
18732;SDS011;9495;51.210;2.934;2023-09-07T09:25:23;10.50;;;7.80;;
18732;SDS011;9495;51.210;2.934;2023-09-07T09:27:53;12.85;;;7.57;;
18732;SDS011;9495;51.210;2.934;2023-09-07T09:30:21;8.23;;;6.63;;
18732;SDS011;9495;51.210;2.934;2023-09-07T09:32:51;9.63;;;7.30;;
18732;SDS011;9495;51.210;2.934;2023-09-07T09:35:19;17.38;;;8.00;;
18732;SDS011;9495;51.210;2.934;2023-09-07T09:37:49;11.88;;;7.28;;
18732;SDS011;9495;51.210;2.934;2023-09-07T09:40:18;9.65;;;6.82;;
18732;SDS011;9495;51.210;2.934;2023-09-07T09:42:47;10.98;;;7.57;;
18732;SDS011;9495;51.210;2.934;2023-09-07T09:45:17;15.05;;;7.07;;
18732;SDS011;9495;51.210;2.934;2023-09-07T09:47:46;11.05;;;6.70;;
18732;SDS011;9495;51.210;2.934;2023-09-07T09:50:20;7.90;;;6.15;;
18732;SDS011;9495;51.210;2.934;2023-09-07T09:52:48;8.88;;;5.97;;
18732;SDS011;9495;51.210;2.934;2023-09-07T09:55:18;9.23;;;7.05;;
18732;SDS011;9495;51.210;2.934;2023-09-07T09:57:47;8.23;;;6.47;;
18732;SDS011;9495;51.210;2.934;2023-09-07T10:00:16;10.98;;;6.20;;
18732;SDS011;9495;51.210;2.934;2023-09-07T10:02:59;8.05;;;5.22;;
18732;SDS011;9495;51.210;2.934;2023-09-07T10:05:32;6.82;;;5.30;;
18732;SDS011;9495;51.210;2.934;2023-09-07T10:08:02;8.20;;;5.25;;
18732;SDS011;9495;51.210;2.934;2023-09-07T10:10:36;6.20;;;5.60;;
18732;SDS011;9495;51.210;2.934;2023-09-07T10:13:05;11.52;;;5.53;;
18732;SDS011;9495;51.210;2.934;2023-09-07T10:15:33;7.35;;;5.75;;
18732;SDS011;9495;51.210;2.934;2023-09-07T10:18:11;8.32;;;6.28;;
18732;SDS011;9495;51.210;2.934;2023-09-07T10:20:53;8.02;;;5.65;;
18732;SDS011;9495;51.210;2.934;2023-09-07T10:23:22;9.23;;;5.28;;
18732;SDS011;9495;51.210;2.934;2023-09-07T10:26:02;11.50;;;5.50;;
18732;SDS011;9495;51.210;2.934;2023-09-07T10:28:33;6.15;;;5.00;;
18732;SDS011;9495;51.210;2.934;2023-09-07T10:31:02;8.95;;;4.38;;
18732;SDS011;9495;51.210;2.934;2023-09-07T10:33:31;8.32;;;4.45;;
18732;SDS011;9495;51.210;2.934;2023-09-07T10:36:04;5.88;;;4.57;;
18732;SDS011;9495;51.210;2.934;2023-09-07T10:38:33;5.32;;;4.57;;
18732;SDS011;9495;51.210;2.934;2023-09-07T10:41:02;7.82;;;4.85;;
18732;SDS011;9495;51.210;2.934;2023-09-07T10:43:32;6.75;;;4.95;;
18732;SDS011;9495;51.210;2.934;2023-09-07T10:46:02;5.93;;;5.10;;
18732;SDS011;9495;51.210;2.934;2023-09-07T10:48:30;8.23;;;5.53;;
18732;SDS011;9495;51.210;2.934;2023-09-07T10:51:02;5.88;;;4.82;;
18732;SDS011;9495;51.210;2.934;2023-09-07T10:53:31;6.30;;;4.55;;
18732;SDS011;9495;51.210;2.934;2023-09-07T10:56:03;5.50;;;4.65;;
18732;SDS011;9495;51.210;2.934;2023-09-07T10:58:32;9.27;;;5.32;;
18732;SDS011;9495;51.210;2.934;2023-09-07T11:01:01;8.35;;;5.13;;
18732;SDS011;9495;51.210;2.934;2023-09-07T11:03:31;5.25;;;4.75;;
18732;SDS011;9495;51.210;2.934;2023-09-07T11:06:01;7.57;;;4.55;;
18732;SDS011;9495;51.210;2.934;2023-09-07T11:08:36;8.88;;;4.70;;
18732;SDS011;9495;51.210;2.934;2023-09-07T11:11:05;8.63;;;5.28;;
18732;SDS011;9495;51.210;2.934;2023-09-07T11:13:33;7.75;;;4.70;;
18732;SDS011;9495;51.210;2.934;2023-09-07T11:16:02;5.32;;;4.43;;
18732;SDS011;9495;51.210;2.934;2023-09-07T11:18:34;11.35;;;4.95;;
18732;SDS011;9495;51.210;2.934;2023-09-07T11:21:05;10.02;;;4.43;;
18732;SDS011;9495;51.210;2.934;2023-09-07T11:23:34;10.88;;;5.32;;
18732;SDS011;9495;51.210;2.934;2023-09-07T11:26:05;6.63;;;4.57;;
18732;SDS011;9495;51.210;2.934;2023-09-07T11:28:34;8.60;;;4.70;;
18732;SDS011;9495;51.210;2.934;2023-09-07T11:31:03;5.55;;;4.38;;
18732;SDS011;9495;51.210;2.934;2023-09-07T11:33:32;9.43;;;5.43;;
18732;SDS011;9495;51.210;2.934;2023-09-07T11:36:02;10.75;;;5.45;;
18732;SDS011;9495;51.210;2.934;2023-09-07T11:38:35;7.80;;;5.25;;
18732;SDS011;9495;51.210;2.934;2023-09-07T11:41:04;8.45;;;5.25;;
18732;SDS011;9495;51.210;2.934;2023-09-07T11:43:32;4.85;;;4.30;;
18732;SDS011;9495;51.210;2.934;2023-09-07T11:46:01;6.78;;;4.80;;
18732;SDS011;9495;51.210;2.934;2023-09-07T11:48:31;7.80;;;4.72;;
18732;SDS011;9495;51.210;2.934;2023-09-07T11:51:00;10.00;;;4.75;;
18732;SDS011;9495;51.210;2.934;2023-09-07T11:53:30;9.50;;;4.60;;
18732;SDS011;9495;51.210;2.934;2023-09-07T11:56:00;9.32;;;5.30;;
18732;SDS011;9495;51.210;2.934;2023-09-07T11:58:29;6.97;;;4.68;;
18732;SDS011;9495;51.210;2.934;2023-09-07T12:00:58;10.40;;;4.82;;
18732;SDS011;9495;51.210;2.934;2023-09-07T12:03:26;5.88;;;4.78;;
18732;SDS011;9495;51.210;2.934;2023-09-07T12:05:57;5.25;;;3.90;;
18732;SDS011;9495;51.210;2.934;2023-09-07T12:08:26;7.80;;;4.30;;
18732;SDS011;9495;51.210;2.934;2023-09-07T12:10:55;6.75;;;4.05;;
18732;SDS011;9495;51.210;2.934;2023-09-07T12:13:24;6.50;;;4.30;;
18732;SDS011;9495;51.210;2.934;2023-09-07T12:15:53;10.27;;;4.90;;
18732;SDS011;9495;51.210;2.934;2023-09-07T12:18:22;8.02;;;4.30;;
18732;SDS011;9495;51.210;2.934;2023-09-07T12:20:51;9.50;;;4.30;;
18732;SDS011;9495;51.210;2.934;2023-09-07T12:23:20;7.68;;;3.97;;
18732;SDS011;9495;51.210;2.934;2023-09-07T12:25:50;7.22;;;4.45;;
18732;SDS011;9495;51.210;2.934;2023-09-07T12:28:20;7.90;;;4.07;;
18732;SDS011;9495;51.210;2.934;2023-09-07T12:30:48;5.53;;;4.20;;
18732;SDS011;9495;51.210;2.934;2023-09-07T12:33:17;4.93;;;3.80;;
18732;SDS011;9495;51.210;2.934;2023-09-07T12:35:46;6.85;;;4.88;;
18732;SDS011;9495;51.210;2.934;2023-09-07T12:38:14;12.68;;;5.10;;
18732;SDS011;9495;51.210;2.934;2023-09-07T12:40:44;7.10;;;4.22;;
18732;SDS011;9495;51.210;2.934;2023-09-07T12:43:13;7.07;;;4.70;;
18732;SDS011;9495;51.210;2.934;2023-09-07T12:45:43;7.53;;;4.57;;
18732;SDS011;9495;51.210;2.934;2023-09-07T12:48:13;7.72;;;4.88;;
18732;SDS011;9495;51.210;2.934;2023-09-07T12:50:42;8.60;;;4.30;;
18732;SDS011;9495;51.210;2.934;2023-09-07T12:53:11;9.77;;;4.75;;
18732;SDS011;9495;51.210;2.934;2023-09-07T12:55:39;6.90;;;4.32;;
18732;SDS011;9495;51.210;2.934;2023-09-07T12:58:08;6.75;;;4.95;;
18732;SDS011;9495;51.210;2.934;2023-09-07T13:00:37;9.50;;;4.55;;
18732;SDS011;9495;51.210;2.934;2023-09-07T13:03:07;7.20;;;4.00;;
18732;SDS011;9495;51.210;2.934;2023-09-07T13:05:35;5.95;;;4.68;;
18732;SDS011;9495;51.210;2.934;2023-09-07T13:08:04;5.28;;;4.78;;
18732;SDS011;9495;51.210;2.934;2023-09-07T13:10:33;8.90;;;5.15;;
18732;SDS011;9495;51.210;2.934;2023-09-07T13:13:01;8.23;;;5.20;;
18732;SDS011;9495;51.210;2.934;2023-09-07T13:15:30;7.60;;;5.38;;
18732;SDS011;9495;51.210;2.934;2023-09-07T13:17:59;11.48;;;5.40;;
18732;SDS011;9495;51.210;2.934;2023-09-07T13:20:29;6.90;;;4.97;;
18732;SDS011;9495;51.210;2.934;2023-09-07T13:22:57;6.20;;;4.97;;
18732;SDS011;9495;51.210;2.934;2023-09-07T13:25:26;13.98;;;5.30;;
18732;SDS011;9495;51.210;2.934;2023-09-07T13:27:55;11.65;;;5.50;;
18732;SDS011;9495;51.210;2.934;2023-09-07T13:30:26;16.73;;;5.70;;
18732;SDS011;9495;51.210;2.934;2023-09-07T13:32:54;6.03;;;5.25;;
18732;SDS011;9495;51.210;2.934;2023-09-07T13:35:23;7.82;;;5.25;;
18732;SDS011;9495;51.210;2.934;2023-09-07T13:37:52;9.77;;;5.97;;
18732;SDS011;9495;51.210;2.934;2023-09-07T13:40:21;6.47;;;4.97;;
18732;SDS011;9495;51.210;2.934;2023-09-07T13:42:50;6.15;;;4.90;;
18732;SDS011;9495;51.210;2.934;2023-09-07T13:45:19;6.72;;;5.10;;
18732;SDS011;9495;51.210;2.934;2023-09-07T13:47:48;7.30;;;5.38;;
18732;SDS011;9495;51.210;2.934;2023-09-07T13:50:17;6.68;;;5.10;;
18732;SDS011;9495;51.210;2.934;2023-09-07T13:52:48;9.98;;;5.50;;
18732;SDS011;9495;51.210;2.934;2023-09-07T13:55:18;6.53;;;4.70;;
18732;SDS011;9495;51.210;2.934;2023-09-07T13:57:46;10.35;;;4.90;;
18732;SDS011;9495;51.210;2.934;2023-09-07T14:00:15;8.32;;;5.07;;
18732;SDS011;9495;51.210;2.934;2023-09-07T14:02:44;6.22;;;4.55;;
18732;SDS011;9495;51.210;2.934;2023-09-07T14:05:12;12.20;;;5.25;;
18732;SDS011;9495;51.210;2.934;2023-09-07T14:07:41;5.72;;;4.45;;
18732;SDS011;9495;51.210;2.934;2023-09-07T14:10:09;8.32;;;4.35;;
18732;SDS011;9495;51.210;2.934;2023-09-07T14:12:39;10.60;;;5.18;;
18732;SDS011;9495;51.210;2.934;2023-09-07T14:15:10;5.60;;;3.60;;
18732;SDS011;9495;51.210;2.934;2023-09-07T14:17:39;6.30;;;3.90;;
18732;SDS011;9495;51.210;2.934;2023-09-07T14:20:07;6.28;;;3.50;;
18732;SDS011;9495;51.210;2.934;2023-09-07T14:22:36;5.28;;;3.63;;
18732;SDS011;9495;51.210;2.934;2023-09-07T14:25:05;6.57;;;3.65;;
18732;SDS011;9495;51.210;2.934;2023-09-07T14:27:34;8.57;;;4.10;;
18732;SDS011;9495;51.210;2.934;2023-09-07T14:30:05;7.80;;;3.45;;
18732;SDS011;9495;51.210;2.934;2023-09-07T14:32:34;7.18;;;3.70;;
18732;SDS011;9495;51.210;2.934;2023-09-07T14:35:03;7.00;;;3.80;;
18732;SDS011;9495;51.210;2.934;2023-09-07T14:37:32;7.43;;;4.10;;
18732;SDS011;9495;51.210;2.934;2023-09-07T14:40:00;4.55;;;3.67;;
18732;SDS011;9495;51.210;2.934;2023-09-07T14:42:29;5.75;;;4.43;;
18732;SDS011;9495;51.210;2.934;2023-09-07T14:44:57;5.75;;;3.67;;
18732;SDS011;9495;51.210;2.934;2023-09-07T14:47:29;8.27;;;4.03;;
18732;SDS011;9495;51.210;2.934;2023-09-07T14:49:58;7.30;;;4.05;;
18732;SDS011;9495;51.210;2.934;2023-09-07T14:52:26;6.75;;;3.65;;
18732;SDS011;9495;51.210;2.934;2023-09-07T14:54:55;5.55;;;4.55;;